Flight Track Log - Related Links

Times and Time Zones

All times are in EST time to prevent confusion due to time zone crossing. See the N612CT flight status page for this flight to view local times or setup timezone preferences in your user account.

Time Position Orientation Groundspeed Altitude Reporting Facility
EST Latitude Longitude Course Direction KTS MPH feet Rate Location/Type
Tue 10:41:20 AM 29.6950 -82.2661 105° East 88 101 500  Level Jacksonville Center
Tue 10:42:27 AM 29.6864 -82.2303 105° East 119 137 1,400 891 Climbing Jacksonville Center
Tue 10:43:28 AM 29.6511 -82.2258 174° South 152 175 2,400 931 Climbing Jacksonville Center
Tue 10:44:23 AM 29.6175 -82.2236 177° South 135 155 3,200 885 Climbing Jacksonville Center
Tue 10:45:30 AM 29.5736 -82.2264 183° South 132 152 4,200 885 Climbing Jacksonville Center
Tue 10:46:25 AM 29.5403 -82.2267 180° South 135 155 5,000 836 Climbing Jacksonville Center
Tue 10:47:32 AM 29.5006 -82.2244 177° South 131 151 5,900 738 Climbing Jacksonville Center
Tue 10:48:27 AM 29.4672 -82.2247 180° South 130 150 6,500 738 Climbing Jacksonville Center
Tue 10:49:34 AM 29.4256 -82.2250 180° South 127 146 7,400 803 Climbing Jacksonville Center
Tue 10:50:34 AM 29.3922 -82.2275 184° South 121 139 8,200 793 Climbing Jacksonville Center
Tue 10:51:35 AM 29.3544 -82.2278 180° South 130 150 9,000 390 Climbing Jacksonville Center
Tue 10:52:37 AM 29.3108 -82.2306 183° South 150 173 9,000  Level Jacksonville Center
Tue 10:53:38 AM 29.2669 -82.2261 175° South 164 189 9,000  Level Jacksonville Center
Tue 10:54:32 AM 29.2272 -82.2264 180° South 159 183 9,000  Level Jacksonville Center
Tue 10:55:33 AM 29.1833 -82.2289 183° South 157 181 9,000  Level Jacksonville Center
Tue 10:56:40 AM 29.1333 -82.2244 176° South 153 176 9,000  Level Jacksonville Center
Tue 10:57:41 AM 29.0914 -82.2131 167° South 150 173 9,000  Level Jacksonville Center
Tue 10:58:48 AM 29.0456 -82.2039 170° South 152 175 9,000  Level Jacksonville Center
Tue 10:59:49 AM 29.0036 -82.1969 172° South 156 180 9,000  Level Jacksonville Center
Tue 11:00:50 AM 28.9578 -82.1900 172° South 157 181 9,000  Level Jacksonville Center
Tue 11:01:45 AM 28.9181 -82.1858 175° South 157 181 9,000  Level Jacksonville Center
Tue 11:02:46 AM 28.8742 -82.1742 167° South 156 180 9,000  Level Jacksonville Center
Tue 11:03:53 AM 28.8281 -82.1650 170° South 154 177 9,000  Level Jacksonville Center
Tue 11:04:54 AM 28.7864 -82.1583 172° South 155 178 9,000 -39 Level Jacksonville Center
Tue 11:06:26 AM 28.7167 -82.1500 174° South 156 180 8,900  Descending Tampa TRACON
Tue 11:07:26 AM 28.6833 -82.1333 156° South 155 178 9,000 50 Climbing Tampa TRACON
Tue 11:08:26 AM 28.6333 -82.1333 180° South 154 177 9,000  Level Tampa TRACON
Tue 11:09:26 AM 28.5833 -82.1167 164° South 157 181 9,000  Level Tampa TRACON
Tue 11:10:26 AM 28.5500 -82.1167 180° South 155 178 9,000  Level Tampa TRACON
Tue 11:11:26 AM 28.5000 -82.1000 164° South 158 182 9,000  Level Tampa TRACON
Tue 11:12:26 AM 28.4667 -82.1000 180° South 157 181 9,000  Level Tampa TRACON
Tue 11:13:26 AM 28.4167 -82.0833 164° South 157 181 9,000  Level Tampa TRACON
Tue 11:14:26 AM 28.3833 -82.0833 180° South 155 178 9,000  Level Tampa TRACON
Tue 11:15:26 AM 28.3333 -82.0833 180° South 156 180 9,000  Level Tampa TRACON
Tue 11:16:26 AM 28.2833 -82.0667 164° South 157 181 9,000  Level Tampa TRACON
Tue 11:17:26 AM 28.2500 -82.0667 180° South 157 181 9,000  Level Tampa TRACON
Tue 11:18:26 AM 28.2000 -82.0500 164° South 155 178 9,000  Level Tampa TRACON
Tue 11:19:26 AM 28.1667 -82.0500 180° South 155 178 9,000  Level Tampa TRACON
Tue 11:20:26 AM 28.1167 -82.0333 164° South 155 178 9,000  Level Tampa TRACON
Tue 11:22:03 AM 28.0492 -82.0272 175° South 102 117 9,000  Level Miami Center
Tue 11:23:03 AM 28.0056 -82.0183 170° South 150 173 9,000  Level Miami Center
Tue 11:24:03 AM 27.9622 -82.0044 164° South 162 186 9,000  Level Miami Center
Tue 11:25:03 AM 27.9233 -81.9817 153° Southeast 162 186 9,000  Level Miami Center
Tue 11:26:03 AM 27.8825 -81.9586 153° Southeast 167 192 9,000  Level Miami Center
Tue 11:27:03 AM 27.8417 -81.9358 154° Southeast 167 192 9,000  Level Miami Center
Tue 11:28:03 AM 27.8047 -81.9131 151° Southeast 172 198 9,000  Level Miami Center
Tue 11:29:03 AM 27.7597 -81.8875 153° Southeast 172 198 9,000  Level Miami Center
Tue 11:30:03 AM 27.7189 -81.8647 154° Southeast 172 198 9,000  Level Miami Center
Tue 11:31:03 AM 27.6758 -81.8439 157° South 167 192 9,000  Level Miami Center
Tue 11:32:03 AM 27.6389 -81.8236 154° Southeast 167 192 9,000  Level Miami Center
Tue 11:33:03 AM 27.5978 -81.8031 156° South 167 192 9,000  Level Miami Center
Tue 11:34:03 AM 27.5550 -81.7778 152° Southeast 167 192 9,000  Level Miami Center
Tue 11:35:03 AM 27.5156 -81.7714 172° South 167 192 9,000  Level Miami Center
Tue 11:36:03 AM 27.4700 -81.7578 165° South 167 192 9,000  Level Miami Center
Tue 11:37:03 AM 27.4244 -81.7467 168° South 167 192 9,000  Level Miami Center
Tue 11:38:03 AM 27.3811 -81.7331 164° South 162 186 9,000  Level Miami Center
Tue 11:39:03 AM 27.3378 -81.7219 167° South 162 186 9,000  Level Miami Center
Tue 11:40:03 AM 27.2922 -81.7106 167° South 162 186 9,000 -50 Level Miami Center
Tue 11:41:03 AM 27.2486 -81.6994 167° South 162 186 8,900 -100 Descending Miami Center
Tue 11:42:03 AM 27.2033 -81.6858 165° South 162 186 8,800 -350 Descending Miami Center
Tue 11:43:03 AM 27.1556 -81.6744 168° South 162 186 8,200 -550 Descending Miami Center
Tue 11:44:03 AM 27.1081 -81.6586 163° South 173 199 7,700 -500 Descending Miami Center
Tue 11:45:03 AM 27.0583 -81.6447 166° South 179 206 7,200 -350 Descending Miami Center
Tue 11:46:03 AM 27.0083 -81.6428 178° South 179 206 7,000 -350 Descending Miami Center
Tue 11:47:03 AM 26.9578 -81.6594 196° South 184 212 6,500 -500 Descending Miami Center
Tue 11:48:03 AM 26.9092 -81.6783 199° South 190 219 6,000 -500 Descending Miami Center
Tue 11:50:00 AM 26.8274 -81.6838 183° South  Level FlightAware Approximate
Tue 11:57:00 AM 26.5342 -81.7123 193° South  Level FlightAware Approximate
Tue 11:58:00 AM 26.4926 -81.7167 180° South  Level FlightAware Approximate
Tue 11:59:00 AM 26.4506 -81.7167 180° South  Level FlightAware Approximate
Tue 12:00:00 PM 26.4089 -81.7207 189° South  Level FlightAware Approximate
Tue 12:01:00 PM 26.3673 -81.7277 189° South  Level FlightAware Approximate
Tue 12:02:00 PM 26.3258 -81.7346 188° South  Level FlightAware Approximate
Tue 12:03:00 PM 26.2843 -81.7415 188° South  Level FlightAware Approximate
Tue 12:04:00 PM 26.2428 -81.7484 188° South  Level FlightAware Approximate
Tue 12:05:00 PM 26.2014 -81.7564 190° South  Level FlightAware Approximate
Tue 12:06:00 PM 26.1600 -81.7647 190° South  Level FlightAware Approximate
Tue 12:07:00 PM 26.1500 -81.7667 190° South  Level FlightAware Approximate
Tue 12:08:00 PM 26.1524 -81.7756 190° South  Level Estimated
Tue 12:09:00 PM 26.1524 -81.7756 190° South  Level Estimated
Tue 12:10:00 PM 26.1524 -81.7756 190° South  Level Estimated
Tue 12:11:00 PM 26.1524 -81.7756 190° South  Level Estimated
Tue 12:12:00 PM 26.1524 -81.7756 190° South  Level Estimated
Tue 12:13:00 PM 26.1524 -81.7756 190° South  Level Estimated
Tue 12:14:00 PM 26.1524 -81.7756 190° South  Level Estimated
Tue 12:15:00 PM 26.1524 -81.7756 190° South  Level Estimated
Tue 12:16:00 PM 26.1524 -81.7756 190° South  Level Estimated
Tue 12:17:00 PM 26.1524 -81.7756 190° South  Level Estimated
Tue 12:18:00 PM 26.1524 -81.7756 190° South  Level Estimated
Tue 12:19:00 PM 26.1524 -81.7756 190° South  Level Estimated
Tue 12:20:00 PM 26.1524 -81.7756 190° South  Level Estimated

Login

Don't have an account? Register now (free) for customized features, flight alerts, and more!